createdAt,value
2022-09-07T00:01:00.679Z,139.20
2022-09-07T00:08:02.630Z,148.63
2022-09-07T00:15:08.245Z,154.32
2022-09-07T00:22:09.903Z,155.63
2022-09-07T00:29:11.637Z,144.85
2022-09-07T00:36:13.410Z,153.13
2022-09-07T00:43:17.471Z,160.68
2022-09-07T00:50:26.363Z,159.88
2022-09-07T00:57:28.210Z,153.30
2022-09-07T01:04:30.220Z,156.90
2022-09-07T01:11:33.831Z,150.15
2022-09-07T01:19:07.313Z,150.05
2022-09-07T01:26:27.496Z,151.95
2022-09-07T01:33:43.472Z,146.48
2022-09-07T01:40:59.646Z,158.20
2022-09-07T01:48:04.654Z,153.90
2022-09-07T01:55:13.612Z,171.75
2022-09-07T02:02:17.987Z,148.40
2022-09-07T02:09:30.743Z,162.35
2022-09-07T02:16:33.457Z,151.75
2022-09-07T02:23:47.647Z,154.63
2022-09-07T02:30:49.287Z,147.73
2022-09-07T02:37:50.962Z,151.00
2022-09-07T02:44:52.655Z,149.43
2022-09-07T02:52:06.376Z,150.13
2022-09-07T02:59:14.256Z,149.18
2022-09-07T03:06:28.533Z,172.98
2022-09-07T03:13:30.350Z,159.35
2022-09-07T03:20:31.984Z,147.90
2022-09-07T03:27:33.637Z,148.80
2022-09-07T03:34:36.239Z,151.48
2022-09-07T03:41:37.826Z,179.85
2022-09-07T03:48:39.487Z,165.98
2022-09-07T03:55:41.148Z,152.18
2022-09-07T04:02:42.909Z,153.18
2022-09-07T04:09:45.438Z,149.57
2022-09-07T04:16:48.878Z,142.57
2022-09-07T04:23:51.678Z,139.48
2022-09-07T04:30:54.827Z,150.80
2022-09-07T04:37:56.938Z,151.52
2022-09-07T04:44:58.586Z,139.13
2022-09-07T04:52:00.361Z,140.05
2022-09-07T04:59:02.269Z,135.27
2022-09-07T05:06:04.766Z,139.13
2022-09-07T05:13:06.432Z,135.40
2022-09-07T05:20:08.332Z,136.23
2022-09-07T05:27:10.041Z,137.10
2022-09-07T05:41:33.349Z,135.15
2022-09-07T05:48:35.138Z,133.35
2022-09-07T05:55:36.752Z,134.98
2022-09-07T06:02:39.875Z,133.98
2022-09-07T06:17:03.401Z,130.52
2022-09-07T06:24:05.665Z,127.18
2022-09-07T06:31:11.192Z,131.13
2022-09-07T06:38:12.940Z,151.80
2022-09-07T06:45:14.556Z,141.75
2022-09-07T06:52:16.297Z,134.90
2022-09-07T06:59:18.008Z,137.30
2022-09-07T07:06:19.998Z,137.18
2022-09-07T07:20:22.177Z,144.20
2022-09-07T07:27:23.862Z,153.65
2022-09-07T07:34:25.807Z,147.63
2022-09-07T07:48:51.941Z,146.77
2022-09-07T07:55:53.625Z,184.20
2022-09-07T08:02:55.421Z,182.38
2022-09-07T08:09:56.970Z,183.45
2022-09-07T08:16:58.553Z,184.80
2022-09-07T08:24:00.200Z,168.48
2022-09-07T08:31:10.649Z,173.07
2022-09-07T08:38:12.413Z,191.10
2022-09-07T08:45:16.113Z,172.98
2022-09-07T08:52:26.346Z,167.25
2022-09-07T08:59:31.411Z,160.88
2022-09-07T09:06:48.318Z,152.95
2022-09-07T09:14:03.660Z,149.23
2022-09-07T09:21:07.865Z,144.38
2022-09-07T09:28:12.562Z,152.75
2022-09-07T09:35:26.336Z,147.88
2022-09-07T09:42:27.920Z,143.35
2022-09-07T09:49:34.833Z,135.95
2022-09-07T09:56:41.494Z,144.63
2022-09-07T10:04:00.898Z,77.25
2022-09-07T10:11:09.647Z,73.13
2022-09-07T10:18:56.476Z,69.85
2022-09-07T10:25:58.074Z,42.57
2022-09-07T10:33:04.350Z,69.43
2022-09-07T10:40:30.019Z,68.88
2022-09-07T10:47:50.547Z,59.15
2022-09-07T10:54:56.821Z,63.25
2022-09-07T11:02:16.961Z,78.00
2022-09-07T11:09:43.398Z,72.70
2022-09-07T11:16:52.908Z,80.15
2022-09-07T11:24:11.159Z,85.15
2022-09-07T11:31:35.918Z,80.57
2022-09-07T11:38:44.855Z,80.72
2022-09-07T11:45:53.657Z,77.05
2022-09-07T11:53:19.425Z,69.35
2022-09-07T12:00:27.621Z,67.13
2022-09-07T12:08:04.613Z,67.32
2022-09-07T12:15:25.818Z,96.80
2022-09-07T12:22:27.413Z,98.85
2022-09-07T12:29:29.336Z,99.75
2022-09-07T12:36:30.818Z,79.65
2022-09-07T12:43:42.597Z,79.80
2022-09-07T12:51:06.111Z,82.15
2022-09-07T12:58:17.221Z,72.72
2022-09-07T13:05:30.826Z,69.18
2022-09-07T13:19:55.629Z,90.57
2022-09-07T13:27:05.865Z,87.05
2022-09-07T13:34:31.387Z,92.78
2022-09-07T13:41:37.194Z,97.72
2022-09-07T13:48:42.076Z,99.57
2022-09-07T13:55:43.647Z,104.10
2022-09-07T14:02:45.331Z,104.95
2022-09-07T14:09:49.944Z,95.05
2022-09-07T14:17:04.554Z,98.75
2022-09-07T14:24:22.698Z,94.28
2022-09-07T14:31:24.881Z,91.80
2022-09-07T14:45:52.722Z,86.93
2022-09-07T15:00:21.154Z,104.47
2022-09-07T15:07:29.839Z,115.82
2022-09-07T15:21:33.649Z,105.63
2022-09-07T15:35:57.502Z,93.72
2022-09-07T15:43:02.070Z,93.28
2022-09-07T15:50:07.348Z,101.20
2022-09-07T16:04:30.737Z,108.18
2022-09-07T16:11:35.205Z,83.20
2022-09-07T16:18:37.616Z,91.63
2022-09-07T16:25:39.582Z,93.10
2022-09-07T16:32:44.788Z,95.25
2022-09-07T16:39:46.643Z,97.30
2022-09-07T16:46:48.461Z,97.65
2022-09-07T16:53:51.146Z,108.25
2022-09-07T17:00:52.803Z,106.85
2022-09-07T17:07:54.769Z,117.30
2022-09-07T17:14:56.344Z,112.90
2022-09-07T17:21:59.633Z,116.90
2022-09-07T17:29:01.393Z,117.32
2022-09-07T17:36:05.083Z,102.70
2022-09-07T17:50:28.244Z,108.50
2022-09-07T17:57:31.562Z,109.30
2022-09-07T18:04:35.628Z,114.97
2022-09-07T18:11:46.409Z,118.07
2022-09-07T18:18:49.192Z,114.45
2022-09-07T18:25:57.992Z,114.40
2022-09-07T18:32:59.870Z,111.55
2022-09-07T18:40:01.848Z,129.75
2022-09-07T18:47:03.596Z,140.38
2022-09-07T18:54:05.229Z,136.35
2022-09-07T19:01:08.192Z,135.60
2022-09-07T19:08:09.830Z,123.35
2022-09-07T19:15:11.402Z,122.32
2022-09-07T19:22:13.051Z,133.30
2022-09-07T19:29:17.917Z,112.65
2022-09-07T19:36:19.473Z,127.38
2022-09-07T19:43:21.047Z,118.75
2022-09-07T19:50:22.647Z,123.38
2022-09-07T19:57:24.307Z,120.47
2022-09-07T20:04:25.936Z,123.22
2022-09-07T20:11:28.561Z,120.47
2022-09-07T20:18:30.168Z,124.40
2022-09-07T20:25:31.717Z,132.43
2022-09-07T20:32:33.881Z,132.18
2022-09-07T20:39:39.130Z,126.68
2022-09-07T20:46:41.326Z,121.85
2022-09-07T20:53:43.079Z,123.18
2022-09-07T21:00:50.511Z,124.10
2022-09-07T21:07:54.116Z,118.45
2022-09-07T21:14:55.872Z,118.13
2022-09-07T21:21:57.452Z,116.78
2022-09-07T21:29:03.686Z,110.88
2022-09-07T21:36:05.816Z,115.05
2022-09-07T21:43:07.373Z,113.97
2022-09-07T21:50:08.967Z,105.18
2022-09-07T21:57:10.754Z,108.47
2022-09-07T22:04:12.376Z,110.38
2022-09-07T22:11:16.491Z,116.78
2022-09-07T22:18:18.069Z,118.00
2022-09-07T22:25:19.647Z,119.68
2022-09-07T22:32:21.266Z,115.32
2022-09-07T22:39:22.825Z,119.18
2022-09-07T22:46:26.059Z,121.63
2022-09-07T22:53:29.011Z,115.60
2022-09-07T23:00:30.661Z,124.93
2022-09-07T23:07:32.237Z,119.63
2022-09-07T23:14:33.917Z,115.93
2022-09-07T23:21:35.472Z,121.88
2022-09-07T23:28:37.046Z,123.15
2022-09-07T23:35:38.607Z,125.18
2022-09-07T23:42:40.154Z,127.03
2022-09-07T23:49:41.785Z,128.18
2022-09-07T23:56:43.371Z,127.03
